sensor_id;sensor_type;location;lat;lon;timestamp;P1;durP1;ratioP1;P2;durP2;ratioP2
15340;SDS011;7770;52.158;5.372;2023-11-22T00:01:55;28.90;;;20.80;;
15340;SDS011;7770;52.158;5.372;2023-11-22T00:04:41;26.83;;;20.27;;
15340;SDS011;7770;52.158;5.372;2023-11-22T00:07:26;29.73;;;20.43;;
15340;SDS011;7770;52.158;5.372;2023-11-22T00:10:15;31.60;;;21.17;;
15340;SDS011;7770;52.158;5.372;2023-11-22T00:13:01;31.13;;;21.43;;
15340;SDS011;7770;52.158;5.372;2023-11-22T00:15:47;29.87;;;21.20;;
15340;SDS011;7770;52.158;5.372;2023-11-22T00:18:35;27.47;;;21.17;;
15340;SDS011;7770;52.158;5.372;2023-11-22T00:21:24;29.80;;;21.03;;
15340;SDS011;7770;52.158;5.372;2023-11-22T00:24:10;30.20;;;20.70;;
15340;SDS011;7770;52.158;5.372;2023-11-22T00:26:56;31.23;;;21.13;;
15340;SDS011;7770;52.158;5.372;2023-11-22T00:29:42;29.87;;;21.50;;
15340;SDS011;7770;52.158;5.372;2023-11-22T00:32:28;29.63;;;21.07;;
15340;SDS011;7770;52.158;5.372;2023-11-22T00:35:13;29.73;;;20.60;;
15340;SDS011;7770;52.158;5.372;2023-11-22T00:37:59;33.10;;;21.63;;
15340;SDS011;7770;52.158;5.372;2023-11-22T00:40:45;28.27;;;20.20;;
15340;SDS011;7770;52.158;5.372;2023-11-22T00:43:31;27.63;;;21.00;;
15340;SDS011;7770;52.158;5.372;2023-11-22T00:46:18;30.23;;;21.37;;
15340;SDS011;7770;52.158;5.372;2023-11-22T00:49:04;29.80;;;21.33;;
15340;SDS011;7770;52.158;5.372;2023-11-22T00:51:50;28.17;;;20.40;;
15340;SDS011;7770;52.158;5.372;2023-11-22T00:54:36;29.30;;;20.63;;
15340;SDS011;7770;52.158;5.372;2023-11-22T00:57:22;29.73;;;20.73;;
15340;SDS011;7770;52.158;5.372;2023-11-22T01:00:08;31.60;;;21.43;;
15340;SDS011;7770;52.158;5.372;2023-11-22T01:02:55;28.87;;;19.90;;
15340;SDS011;7770;52.158;5.372;2023-11-22T01:05:40;33.47;;;22.20;;
15340;SDS011;7770;52.158;5.372;2023-11-22T01:08:27;29.70;;;20.50;;
15340;SDS011;7770;52.158;5.372;2023-11-22T01:11:14;31.07;;;20.53;;
15340;SDS011;7770;52.158;5.372;2023-11-22T01:14:00;30.73;;;21.83;;
15340;SDS011;7770;52.158;5.372;2023-11-22T01:16:46;31.43;;;21.23;;
15340;SDS011;7770;52.158;5.372;2023-11-22T01:19:31;31.83;;;21.17;;
15340;SDS011;7770;52.158;5.372;2023-11-22T01:22:17;31.57;;;21.13;;
15340;SDS011;7770;52.158;5.372;2023-11-22T01:25:03;33.07;;;21.10;;
15340;SDS011;7770;52.158;5.372;2023-11-22T01:27:50;32.47;;;21.00;;
15340;SDS011;7770;52.158;5.372;2023-11-22T01:30:36;31.67;;;22.30;;
15340;SDS011;7770;52.158;5.372;2023-11-22T01:33:23;32.83;;;22.57;;
15340;SDS011;7770;52.158;5.372;2023-11-22T01:36:08;32.73;;;20.80;;
15340;SDS011;7770;52.158;5.372;2023-11-22T01:38:54;27.73;;;20.50;;
15340;SDS011;7770;52.158;5.372;2023-11-22T01:41:44;28.57;;;19.77;;
15340;SDS011;7770;52.158;5.372;2023-11-22T01:44:30;31.07;;;20.13;;
15340;SDS011;7770;52.158;5.372;2023-11-22T01:47:15;30.17;;;19.83;;
15340;SDS011;7770;52.158;5.372;2023-11-22T01:50:03;29.43;;;19.27;;
15340;SDS011;7770;52.158;5.372;2023-11-22T01:52:52;29.90;;;20.67;;
15340;SDS011;7770;52.158;5.372;2023-11-22T01:55:38;31.73;;;21.57;;
15340;SDS011;7770;52.158;5.372;2023-11-22T01:58:25;32.50;;;21.80;;
15340;SDS011;7770;52.158;5.372;2023-11-22T02:01:12;32.17;;;20.60;;
15340;SDS011;7770;52.158;5.372;2023-11-22T02:03:58;31.13;;;21.80;;
15340;SDS011;7770;52.158;5.372;2023-11-22T02:06:44;31.93;;;21.60;;
15340;SDS011;7770;52.158;5.372;2023-11-22T02:09:30;31.50;;;20.53;;
15340;SDS011;7770;52.158;5.372;2023-11-22T02:12:16;36.10;;;22.07;;
15340;SDS011;7770;52.158;5.372;2023-11-22T02:15:02;34.23;;;22.50;;
15340;SDS011;7770;52.158;5.372;2023-11-22T02:17:49;34.07;;;22.13;;
15340;SDS011;7770;52.158;5.372;2023-11-22T02:20:34;35.53;;;21.17;;
15340;SDS011;7770;52.158;5.372;2023-11-22T02:23:20;33.67;;;21.23;;
15340;SDS011;7770;52.158;5.372;2023-11-22T02:26:07;32.63;;;20.97;;
15340;SDS011;7770;52.158;5.372;2023-11-22T02:28:53;32.97;;;21.27;;
15340;SDS011;7770;52.158;5.372;2023-11-22T02:31:40;34.67;;;21.30;;
15340;SDS011;7770;52.158;5.372;2023-11-22T02:34:27;32.37;;;20.30;;
15340;SDS011;7770;52.158;5.372;2023-11-22T02:37:13;29.33;;;20.43;;
15340;SDS011;7770;52.158;5.372;2023-11-22T02:40:05;31.50;;;20.77;;
15340;SDS011;7770;52.158;5.372;2023-11-22T02:43:05;31.00;;;19.93;;
15340;SDS011;7770;52.158;5.372;2023-11-22T02:45:54;35.63;;;21.27;;
15340;SDS011;7770;52.158;5.372;2023-11-22T02:48:40;31.67;;;20.00;;
15340;SDS011;7770;52.158;5.372;2023-11-22T02:51:25;34.70;;;22.10;;
15340;SDS011;7770;52.158;5.372;2023-11-22T02:54:11;33.43;;;22.07;;
15340;SDS011;7770;52.158;5.372;2023-11-22T02:56:57;39.87;;;23.50;;
15340;SDS011;7770;52.158;5.372;2023-11-22T02:59:44;35.30;;;22.30;;
15340;SDS011;7770;52.158;5.372;2023-11-22T03:02:30;32.60;;;21.63;;
15340;SDS011;7770;52.158;5.372;2023-11-22T03:05:17;34.10;;;22.00;;
15340;SDS011;7770;52.158;5.372;2023-11-22T03:08:04;35.23;;;23.67;;
15340;SDS011;7770;52.158;5.372;2023-11-22T03:10:52;34.53;;;22.23;;
15340;SDS011;7770;52.158;5.372;2023-11-22T03:13:38;31.63;;;21.73;;
15340;SDS011;7770;52.158;5.372;2023-11-22T03:16:24;33.00;;;21.70;;
15340;SDS011;7770;52.158;5.372;2023-11-22T03:19:10;31.87;;;22.03;;
15340;SDS011;7770;52.158;5.372;2023-11-22T03:21:58;35.07;;;21.93;;
15340;SDS011;7770;52.158;5.372;2023-11-22T03:24:44;32.97;;;21.37;;
15340;SDS011;7770;52.158;5.372;2023-11-22T03:27:30;33.73;;;21.17;;
15340;SDS011;7770;52.158;5.372;2023-11-22T03:30:16;32.43;;;20.97;;
15340;SDS011;7770;52.158;5.372;2023-11-22T03:33:02;33.30;;;20.77;;
15340;SDS011;7770;52.158;5.372;2023-11-22T03:35:48;34.20;;;21.30;;
15340;SDS011;7770;52.158;5.372;2023-11-22T03:38:34;41.03;;;22.33;;
15340;SDS011;7770;52.158;5.372;2023-11-22T03:41:19;34.30;;;20.63;;
15340;SDS011;7770;52.158;5.372;2023-11-22T03:44:06;39.40;;;21.37;;
15340;SDS011;7770;52.158;5.372;2023-11-22T03:46:55;31.70;;;20.80;;
15340;SDS011;7770;52.158;5.372;2023-11-22T03:49:41;34.87;;;21.03;;
15340;SDS011;7770;52.158;5.372;2023-11-22T03:52:28;39.00;;;22.67;;
15340;SDS011;7770;52.158;5.372;2023-11-22T03:55:14;32.27;;;21.00;;
15340;SDS011;7770;52.158;5.372;2023-11-22T03:57:59;34.17;;;21.80;;
15340;SDS011;7770;52.158;5.372;2023-11-22T04:00:45;35.30;;;21.43;;
15340;SDS011;7770;52.158;5.372;2023-11-22T04:03:31;34.20;;;21.30;;
15340;SDS011;7770;52.158;5.372;2023-11-22T04:06:17;37.73;;;22.03;;
15340;SDS011;7770;52.158;5.372;2023-11-22T04:09:04;37.73;;;21.43;;
15340;SDS011;7770;52.158;5.372;2023-11-22T04:11:50;35.13;;;22.70;;
15340;SDS011;7770;52.158;5.372;2023-11-22T04:14:37;34.87;;;21.73;;
15340;SDS011;7770;52.158;5.372;2023-11-22T04:17:22;46.17;;;25.07;;
15340;SDS011;7770;52.158;5.372;2023-11-22T04:20:09;44.77;;;26.90;;
15340;SDS011;7770;52.158;5.372;2023-11-22T04:22:55;40.10;;;24.70;;
15340;SDS011;7770;52.158;5.372;2023-11-22T04:25:42;40.47;;;25.40;;
15340;SDS011;7770;52.158;5.372;2023-11-22T04:28:28;39.43;;;24.47;;
15340;SDS011;7770;52.158;5.372;2023-11-22T04:31:17;42.87;;;26.30;;
15340;SDS011;7770;52.158;5.372;2023-11-22T04:34:03;43.33;;;27.63;;
15340;SDS011;7770;52.158;5.372;2023-11-22T04:36:49;44.03;;;27.33;;
15340;SDS011;7770;52.158;5.372;2023-11-22T04:39:35;45.17;;;27.47;;
15340;SDS011;7770;52.158;5.372;2023-11-22T04:42:21;41.93;;;26.57;;
15340;SDS011;7770;52.158;5.372;2023-11-22T04:45:07;40.60;;;25.63;;
15340;SDS011;7770;52.158;5.372;2023-11-22T04:47:55;43.77;;;25.07;;
15340;SDS011;7770;52.158;5.372;2023-11-22T04:50:42;39.27;;;25.67;;
15340;SDS011;7770;52.158;5.372;2023-11-22T04:53:28;40.40;;;24.00;;
15340;SDS011;7770;52.158;5.372;2023-11-22T04:56:14;36.37;;;23.00;;
15340;SDS011;7770;52.158;5.372;2023-11-22T04:58:59;38.53;;;24.03;;
15340;SDS011;7770;52.158;5.372;2023-11-22T05:01:45;40.10;;;24.13;;
15340;SDS011;7770;52.158;5.372;2023-11-22T05:04:31;37.13;;;22.80;;
15340;SDS011;7770;52.158;5.372;2023-11-22T05:07:17;36.93;;;23.10;;
15340;SDS011;7770;52.158;5.372;2023-11-22T05:10:04;36.77;;;23.10;;
15340;SDS011;7770;52.158;5.372;2023-11-22T05:12:50;33.67;;;21.93;;
15340;SDS011;7770;52.158;5.372;2023-11-22T05:15:36;39.73;;;23.80;;
15340;SDS011;7770;52.158;5.372;2023-11-22T05:18:22;38.23;;;24.57;;
15340;SDS011;7770;52.158;5.372;2023-11-22T05:21:08;38.00;;;24.47;;
15340;SDS011;7770;52.158;5.372;2023-11-22T05:23:54;35.03;;;22.83;;
15340;SDS011;7770;52.158;5.372;2023-11-22T05:26:40;34.33;;;22.70;;
15340;SDS011;7770;52.158;5.372;2023-11-22T05:29:26;33.87;;;21.80;;
15340;SDS011;7770;52.158;5.372;2023-11-22T05:32:12;39.10;;;23.47;;
15340;SDS011;7770;52.158;5.372;2023-11-22T05:34:57;36.30;;;23.00;;
15340;SDS011;7770;52.158;5.372;2023-11-22T05:37:43;32.97;;;21.83;;
15340;SDS011;7770;52.158;5.372;2023-11-22T05:40:29;33.53;;;21.33;;
15340;SDS011;7770;52.158;5.372;2023-11-22T05:43:15;35.13;;;22.63;;
15340;SDS011;7770;52.158;5.372;2023-11-22T05:46:01;33.13;;;20.97;;
15340;SDS011;7770;52.158;5.372;2023-11-22T05:48:47;32.97;;;20.73;;
15340;SDS011;7770;52.158;5.372;2023-11-22T05:51:34;35.13;;;21.07;;
15340;SDS011;7770;52.158;5.372;2023-11-22T05:54:20;30.03;;;21.10;;
15340;SDS011;7770;52.158;5.372;2023-11-22T05:57:06;34.60;;;19.40;;
15340;SDS011;7770;52.158;5.372;2023-11-22T05:59:52;29.20;;;20.53;;
15340;SDS011;7770;52.158;5.372;2023-11-22T06:02:38;32.57;;;20.83;;
15340;SDS011;7770;52.158;5.372;2023-11-22T06:05:24;31.70;;;20.60;;
15340;SDS011;7770;52.158;5.372;2023-11-22T06:08:10;32.33;;;20.53;;
15340;SDS011;7770;52.158;5.372;2023-11-22T06:10:56;33.60;;;22.13;;
15340;SDS011;7770;52.158;5.372;2023-11-22T06:13:43;33.00;;;20.73;;
15340;SDS011;7770;52.158;5.372;2023-11-22T06:16:29;31.43;;;21.40;;
15340;SDS011;7770;52.158;5.372;2023-11-22T06:19:15;34.90;;;22.13;;
15340;SDS011;7770;52.158;5.372;2023-11-22T06:22:01;32.47;;;20.83;;
15340;SDS011;7770;52.158;5.372;2023-11-22T06:24:46;30.83;;;21.60;;
15340;SDS011;7770;52.158;5.372;2023-11-22T06:27:33;31.73;;;20.73;;
15340;SDS011;7770;52.158;5.372;2023-11-22T06:30:19;28.37;;;20.23;;
15340;SDS011;7770;52.158;5.372;2023-11-22T06:33:05;34.63;;;22.43;;
15340;SDS011;7770;52.158;5.372;2023-11-22T06:35:50;36.77;;;22.73;;
15340;SDS011;7770;52.158;5.372;2023-11-22T06:38:36;32.40;;;21.57;;
15340;SDS011;7770;52.158;5.372;2023-11-22T06:41:22;34.57;;;20.80;;
15340;SDS011;7770;52.158;5.372;2023-11-22T06:44:08;30.60;;;20.70;;
15340;SDS011;7770;52.158;5.372;2023-11-22T06:46:55;35.27;;;21.70;;
15340;SDS011;7770;52.158;5.372;2023-11-22T06:49:41;32.97;;;20.33;;
15340;SDS011;7770;52.158;5.372;2023-11-22T06:52:27;34.73;;;22.83;;
15340;SDS011;7770;52.158;5.372;2023-11-22T06:55:13;31.73;;;21.40;;
15340;SDS011;7770;52.158;5.372;2023-11-22T06:57:59;35.73;;;21.90;;
15340;SDS011;7770;52.158;5.372;2023-11-22T07:00:44;31.90;;;21.23;;
15340;SDS011;7770;52.158;5.372;2023-11-22T07:03:30;29.57;;;19.50;;
15340;SDS011;7770;52.158;5.372;2023-11-22T07:06:16;33.83;;;21.97;;
15340;SDS011;7770;52.158;5.372;2023-11-22T07:09:04;35.27;;;23.80;;
15340;SDS011;7770;52.158;5.372;2023-11-22T07:11:50;36.93;;;23.37;;
15340;SDS011;7770;52.158;5.372;2023-11-22T07:14:37;32.70;;;22.03;;
15340;SDS011;7770;52.158;5.372;2023-11-22T07:17:23;33.30;;;22.63;;
15340;SDS011;7770;52.158;5.372;2023-11-22T07:20:12;33.90;;;23.80;;
15340;SDS011;7770;52.158;5.372;2023-11-22T07:23:01;37.40;;;24.23;;
15340;SDS011;7770;52.158;5.372;2023-11-22T07:25:47;36.23;;;23.53;;
15340;SDS011;7770;52.158;5.372;2023-11-22T07:28:33;33.40;;;23.83;;
15340;SDS011;7770;52.158;5.372;2023-11-22T07:31:21;34.93;;;23.80;;
15340;SDS011;7770;52.158;5.372;2023-11-22T07:34:07;32.83;;;22.40;;
15340;SDS011;7770;52.158;5.372;2023-11-22T07:36:56;34.03;;;23.53;;
15340;SDS011;7770;52.158;5.372;2023-11-22T07:39:42;36.03;;;23.20;;
15340;SDS011;7770;52.158;5.372;2023-11-22T07:42:29;34.07;;;22.20;;
15340;SDS011;7770;52.158;5.372;2023-11-22T07:45:15;33.47;;;23.23;;
15340;SDS011;7770;52.158;5.372;2023-11-22T07:48:01;36.07;;;24.20;;
15340;SDS011;7770;52.158;5.372;2023-11-22T07:50:48;34.43;;;24.73;;
15340;SDS011;7770;52.158;5.372;2023-11-22T07:53:34;33.40;;;23.97;;
15340;SDS011;7770;52.158;5.372;2023-11-22T07:56:20;35.83;;;23.50;;
15340;SDS011;7770;52.158;5.372;2023-11-22T07:59:06;34.67;;;24.67;;
15340;SDS011;7770;52.158;5.372;2023-11-22T08:01:52;34.07;;;23.70;;
15340;SDS011;7770;52.158;5.372;2023-11-22T08:04:39;35.37;;;24.30;;
15340;SDS011;7770;52.158;5.372;2023-11-22T08:07:25;30.87;;;23.43;;
15340;SDS011;7770;52.158;5.372;2023-11-22T08:10:13;32.27;;;24.53;;
15340;SDS011;7770;52.158;5.372;2023-11-22T08:13:05;33.60;;;24.17;;
15340;SDS011;7770;52.158;5.372;2023-11-22T08:15:51;28.77;;;21.57;;
15340;SDS011;7770;52.158;5.372;2023-11-22T08:18:38;28.57;;;22.20;;
15340;SDS011;7770;52.158;5.372;2023-11-22T08:21:25;29.13;;;22.13;;
15340;SDS011;7770;52.158;5.372;2023-11-22T08:24:11;31.57;;;23.17;;
15340;SDS011;7770;52.158;5.372;2023-11-22T08:26:58;30.03;;;22.07;;
15340;SDS011;7770;52.158;5.372;2023-11-22T08:29:44;30.10;;;22.60;;
15340;SDS011;7770;52.158;5.372;2023-11-22T08:32:31;31.73;;;22.30;;
15340;SDS011;7770;52.158;5.372;2023-11-22T08:35:18;29.43;;;21.97;;
15340;SDS011;7770;52.158;5.372;2023-11-22T08:38:05;30.30;;;21.93;;
15340;SDS011;7770;52.158;5.372;2023-11-22T08:40:54;32.33;;;22.23;;
15340;SDS011;7770;52.158;5.372;2023-11-22T08:43:40;28.47;;;21.13;;
15340;SDS011;7770;52.158;5.372;2023-11-22T08:46:27;31.03;;;22.80;;
15340;SDS011;7770;52.158;5.372;2023-11-22T08:49:13;29.70;;;22.60;;
15340;SDS011;7770;52.158;5.372;2023-11-22T08:52:00;28.27;;;22.07;;
15340;SDS011;7770;52.158;5.372;2023-11-22T08:54:48;29.17;;;22.70;;
15340;SDS011;7770;52.158;5.372;2023-11-22T08:57:37;28.83;;;21.47;;
15340;SDS011;7770;52.158;5.372;2023-11-22T09:00:23;28.83;;;22.40;;
15340;SDS011;7770;52.158;5.372;2023-11-22T09:03:13;29.93;;;22.07;;
15340;SDS011;7770;52.158;5.372;2023-11-22T09:05:59;26.50;;;21.77;;
15340;SDS011;7770;52.158;5.372;2023-11-22T09:08:45;26.90;;;21.43;;
15340;SDS011;7770;52.158;5.372;2023-11-22T09:11:31;28.23;;;21.77;;
15340;SDS011;7770;52.158;5.372;2023-11-22T09:14:19;26.43;;;20.47;;
15340;SDS011;7770;52.158;5.372;2023-11-22T09:17:06;28.60;;;20.30;;
15340;SDS011;7770;52.158;5.372;2023-11-22T09:19:52;28.83;;;22.30;;
15340;SDS011;7770;52.158;5.372;2023-11-22T09:22:41;26.10;;;21.50;;
15340;SDS011;7770;52.158;5.372;2023-11-22T09:25:31;27.63;;;21.07;;
15340;SDS011;7770;52.158;5.372;2023-11-22T09:28:18;25.87;;;20.20;;
15340;SDS011;7770;52.158;5.372;2023-11-22T09:31:05;26.47;;;20.67;;
15340;SDS011;7770;52.158;5.372;2023-11-22T09:33:51;24.10;;;20.13;;
15340;SDS011;7770;52.158;5.372;2023-11-22T09:36:37;26.33;;;20.87;;
15340;SDS011;7770;52.158;5.372;2023-11-22T09:39:23;28.03;;;20.17;;
15340;SDS011;7770;52.158;5.372;2023-11-22T09:42:10;26.47;;;21.30;;
15340;SDS011;7770;52.158;5.372;2023-11-22T09:44:58;27.93;;;21.40;;
15340;SDS011;7770;52.158;5.372;2023-11-22T09:47:44;28.30;;;21.53;;
15340;SDS011;7770;52.158;5.372;2023-11-22T09:50:40;27.70;;;21.87;;
15340;SDS011;7770;52.158;5.372;2023-11-22T09:53:52;29.83;;;22.20;;
15340;SDS011;7770;52.158;5.372;2023-11-22T09:56:42;27.67;;;21.37;;
15340;SDS011;7770;52.158;5.372;2023-11-22T09:59:35;26.23;;;20.77;;
15340;SDS011;7770;52.158;5.372;2023-11-22T10:02:23;26.43;;;21.10;;
15340;SDS011;7770;52.158;5.372;2023-11-22T10:05:12;25.50;;;20.53;;
15340;SDS011;7770;52.158;5.372;2023-11-22T10:07:58;27.63;;;20.67;;
15340;SDS011;7770;52.158;5.372;2023-11-22T10:10:44;28.30;;;21.37;;
15340;SDS011;7770;52.158;5.372;2023-11-22T10:13:33;28.57;;;21.77;;
15340;SDS011;7770;52.158;5.372;2023-11-22T10:16:19;27.20;;;21.43;;
15340;SDS011;7770;52.158;5.372;2023-11-22T10:19:06;27.93;;;22.63;;
15340;SDS011;7770;52.158;5.372;2023-11-22T10:22:05;27.67;;;21.77;;
15340;SDS011;7770;52.158;5.372;2023-11-22T10:24:51;27.57;;;23.57;;
15340;SDS011;7770;52.158;5.372;2023-11-22T10:27:40;26.80;;;21.53;;
15340;SDS011;7770;52.158;5.372;2023-11-22T10:30:27;28.00;;;22.53;;
15340;SDS011;7770;52.158;5.372;2023-11-22T10:33:14;25.83;;;21.37;;
15340;SDS011;7770;52.158;5.372;2023-11-22T10:36:01;25.03;;;21.60;;
15340;SDS011;7770;52.158;5.372;2023-11-22T10:38:47;26.60;;;20.90;;
15340;SDS011;7770;52.158;5.372;2023-11-22T10:41:34;26.17;;;20.03;;
15340;SDS011;7770;52.158;5.372;2023-11-22T10:44:23;25.23;;;20.20;;
15340;SDS011;7770;52.158;5.372;2023-11-22T10:47:09;26.40;;;21.57;;
15340;SDS011;7770;52.158;5.372;2023-11-22T10:50:00;25.47;;;20.70;;
15340;SDS011;7770;52.158;5.372;2023-11-22T10:52:46;26.13;;;19.67;;
15340;SDS011;7770;52.158;5.372;2023-11-22T10:55:40;23.93;;;20.00;;
15340;SDS011;7770;52.158;5.372;2023-11-22T10:58:29;24.30;;;20.30;;
15340;SDS011;7770;52.158;5.372;2023-11-22T11:01:18;24.23;;;20.67;;
15340;SDS011;7770;52.158;5.372;2023-11-22T11:04:09;28.23;;;23.03;;
15340;SDS011;7770;52.158;5.372;2023-11-22T11:07:04;24.43;;;20.07;;
15340;SDS011;7770;52.158;5.372;2023-11-22T11:09:52;21.27;;;18.83;;
15340;SDS011;7770;52.158;5.372;2023-11-22T11:12:41;23.53;;;20.93;;
15340;SDS011;7770;52.158;5.372;2023-11-22T11:15:28;25.27;;;19.70;;
15340;SDS011;7770;52.158;5.372;2023-11-22T11:18:15;24.20;;;19.47;;
15340;SDS011;7770;52.158;5.372;2023-11-22T11:21:07;20.73;;;18.53;;
15340;SDS011;7770;52.158;5.372;2023-11-22T11:23:54;21.80;;;19.27;;
15340;SDS011;7770;52.158;5.372;2023-11-22T11:26:47;21.10;;;18.30;;
15340;SDS011;7770;52.158;5.372;2023-11-22T11:29:37;21.30;;;18.40;;
15340;SDS011;7770;52.158;5.372;2023-11-22T11:32:31;22.10;;;18.73;;
15340;SDS011;7770;52.158;5.372;2023-11-22T11:35:34;23.23;;;19.07;;
15340;SDS011;7770;52.158;5.372;2023-11-22T11:38:27;20.70;;;18.30;;
15340;SDS011;7770;52.158;5.372;2023-11-22T11:41:28;22.40;;;18.57;;
15340;SDS011;7770;52.158;5.372;2023-11-22T11:44:17;23.37;;;18.23;;
15340;SDS011;7770;52.158;5.372;2023-11-22T11:47:11;22.87;;;18.53;;
15340;SDS011;7770;52.158;5.372;2023-11-22T11:49:57;23.60;;;19.20;;
15340;SDS011;7770;52.158;5.372;2023-11-22T11:52:43;24.20;;;20.07;;
15340;SDS011;7770;52.158;5.372;2023-11-22T11:55:29;24.10;;;19.70;;
15340;SDS011;7770;52.158;5.372;2023-11-22T11:58:15;22.17;;;19.53;;
15340;SDS011;7770;52.158;5.372;2023-11-22T12:01:02;23.33;;;19.23;;
15340;SDS011;7770;52.158;5.372;2023-11-22T12:03:49;21.30;;;18.80;;
15340;SDS011;7770;52.158;5.372;2023-11-22T12:06:35;20.47;;;17.87;;
15340;SDS011;7770;52.158;5.372;2023-11-22T12:09:24;20.40;;;17.87;;
15340;SDS011;7770;52.158;5.372;2023-11-22T12:12:11;19.40;;;17.30;;
15340;SDS011;7770;52.158;5.372;2023-11-22T12:14:57;19.33;;;17.20;;
15340;SDS011;7770;52.158;5.372;2023-11-22T12:17:44;19.07;;;16.67;;
15340;SDS011;7770;52.158;5.372;2023-11-22T12:20:30;19.47;;;16.47;;
15340;SDS011;7770;52.158;5.372;2023-11-22T12:23:16;19.77;;;17.40;;
15340;SDS011;7770;52.158;5.372;2023-11-22T12:26:02;19.47;;;17.30;;
15340;SDS011;7770;52.158;5.372;2023-11-22T12:28:49;20.03;;;17.33;;
15340;SDS011;7770;52.158;5.372;2023-11-22T12:31:35;20.07;;;17.50;;
15340;SDS011;7770;52.158;5.372;2023-11-22T12:34:31;20.37;;;17.63;;
15340;SDS011;7770;52.158;5.372;2023-11-22T12:37:22;20.90;;;18.27;;
15340;SDS011;7770;52.158;5.372;2023-11-22T12:40:09;20.33;;;17.87;;
15340;SDS011;7770;52.158;5.372;2023-11-22T12:42:56;19.27;;;17.17;;
15340;SDS011;7770;52.158;5.372;2023-11-22T12:45:43;19.20;;;16.77;;
15340;SDS011;7770;52.158;5.372;2023-11-22T12:48:30;22.60;;;18.70;;
15340;SDS011;7770;52.158;5.372;2023-11-22T12:51:17;22.60;;;18.93;;
15340;SDS011;7770;52.158;5.372;2023-11-22T12:54:08;23.03;;;19.37;;
15340;SDS011;7770;52.158;5.372;2023-11-22T12:56:55;20.83;;;18.57;;
15340;SDS011;7770;52.158;5.372;2023-11-22T12:59:44;23.10;;;18.73;;
15340;SDS011;7770;52.158;5.372;2023-11-22T13:02:31;23.40;;;19.03;;
15340;SDS011;7770;52.158;5.372;2023-11-22T13:05:17;22.17;;;19.10;;
15340;SDS011;7770;52.158;5.372;2023-11-22T13:08:04;20.97;;;17.73;;
15340;SDS011;7770;52.158;5.372;2023-11-22T13:10:50;23.40;;;18.23;;
15340;SDS011;7770;52.158;5.372;2023-11-22T13:13:40;23.10;;;18.93;;
15340;SDS011;7770;52.158;5.372;2023-11-22T13:16:26;25.70;;;18.63;;
15340;SDS011;7770;52.158;5.372;2023-11-22T13:19:12;23.30;;;20.10;;
15340;SDS011;7770;52.158;5.372;2023-11-22T13:21:58;22.27;;;19.33;;
15340;SDS011;7770;52.158;5.372;2023-11-22T13:24:44;25.83;;;20.03;;
15340;SDS011;7770;52.158;5.372;2023-11-22T13:27:29;26.20;;;20.87;;
15340;SDS011;7770;52.158;5.372;2023-11-22T13:30:16;23.80;;;20.17;;
15340;SDS011;7770;52.158;5.372;2023-11-22T13:33:08;22.23;;;18.90;;
15340;SDS011;7770;52.158;5.372;2023-11-22T13:35:54;21.30;;;18.53;;
15340;SDS011;7770;52.158;5.372;2023-11-22T13:38:40;22.93;;;18.97;;
15340;SDS011;7770;52.158;5.372;2023-11-22T13:41:26;22.80;;;19.60;;
15340;SDS011;7770;52.158;5.372;2023-11-22T13:44:11;22.30;;;18.93;;
15340;SDS011;7770;52.158;5.372;2023-11-22T13:46:59;22.00;;;18.67;;
15340;SDS011;7770;52.158;5.372;2023-11-22T13:49:44;22.43;;;18.03;;
15340;SDS011;7770;52.158;5.372;2023-11-22T13:52:30;26.70;;;21.90;;
15340;SDS011;7770;52.158;5.372;2023-11-22T13:55:18;24.53;;;20.83;;
15340;SDS011;7770;52.158;5.372;2023-11-22T13:58:08;25.43;;;21.70;;
15340;SDS011;7770;52.158;5.372;2023-11-22T14:00:54;25.17;;;21.13;;
15340;SDS011;7770;52.158;5.372;2023-11-22T14:03:40;26.10;;;21.77;;
15340;SDS011;7770;52.158;5.372;2023-11-22T14:06:26;27.80;;;22.83;;
15340;SDS011;7770;52.158;5.372;2023-11-22T14:09:12;26.40;;;21.17;;
15340;SDS011;7770;52.158;5.372;2023-11-22T14:11:59;27.97;;;22.20;;
15340;SDS011;7770;52.158;5.372;2023-11-22T14:14:45;25.93;;;22.03;;
15340;SDS011;7770;52.158;5.372;2023-11-22T14:17:31;27.67;;;21.87;;
15340;SDS011;7770;52.158;5.372;2023-11-22T14:20:18;28.70;;;23.90;;
15340;SDS011;7770;52.158;5.372;2023-11-22T14:23:03;30.10;;;23.17;;
15340;SDS011;7770;52.158;5.372;2023-11-22T14:25:49;27.73;;;22.43;;
15340;SDS011;7770;52.158;5.372;2023-11-22T14:28:35;30.10;;;24.30;;
15340;SDS011;7770;52.158;5.372;2023-11-22T14:31:21;31.17;;;25.73;;
15340;SDS011;7770;52.158;5.372;2023-11-22T14:34:07;29.67;;;23.70;;
15340;SDS011;7770;52.158;5.372;2023-11-22T14:36:53;29.67;;;24.23;;
15340;SDS011;7770;52.158;5.372;2023-11-22T14:39:40;31.03;;;25.27;;
15340;SDS011;7770;52.158;5.372;2023-11-22T14:42:26;30.60;;;25.17;;
15340;SDS011;7770;52.158;5.372;2023-11-22T14:45:13;33.97;;;26.90;;
15340;SDS011;7770;52.158;5.372;2023-11-22T14:47:59;32.50;;;24.60;;
15340;SDS011;7770;52.158;5.372;2023-11-22T14:50:46;33.50;;;25.87;;
15340;SDS011;7770;52.158;5.372;2023-11-22T14:53:32;33.63;;;28.33;;
15340;SDS011;7770;52.158;5.372;2023-11-22T14:56:18;35.60;;;26.93;;
15340;SDS011;7770;52.158;5.372;2023-11-22T14:59:04;34.73;;;26.30;;
15340;SDS011;7770;52.158;5.372;2023-11-22T15:01:50;36.13;;;28.00;;
15340;SDS011;7770;52.158;5.372;2023-11-22T15:04:35;34.20;;;26.30;;
15340;SDS011;7770;52.158;5.372;2023-11-22T15:07:22;35.00;;;26.73;;
15340;SDS011;7770;52.158;5.372;2023-11-22T15:10:09;36.33;;;26.13;;
15340;SDS011;7770;52.158;5.372;2023-11-22T15:12:55;33.37;;;27.13;;
15340;SDS011;7770;52.158;5.372;2023-11-22T15:15:42;30.40;;;24.53;;
15340;SDS011;7770;52.158;5.372;2023-11-22T15:18:28;34.47;;;27.07;;
15340;SDS011;7770;52.158;5.372;2023-11-22T15:21:16;36.17;;;27.83;;
15340;SDS011;7770;52.158;5.372;2023-11-22T15:24:03;36.37;;;27.40;;
15340;SDS011;7770;52.158;5.372;2023-11-22T15:26:49;33.77;;;26.17;;
15340;SDS011;7770;52.158;5.372;2023-11-22T15:29:34;33.90;;;26.33;;
15340;SDS011;7770;52.158;5.372;2023-11-22T15:32:20;34.40;;;27.83;;
15340;SDS011;7770;52.158;5.372;2023-11-22T15:35:06;36.93;;;28.70;;
15340;SDS011;7770;52.158;5.372;2023-11-22T15:37:54;36.17;;;27.40;;
15340;SDS011;7770;52.158;5.372;2023-11-22T15:40:40;37.50;;;27.83;;
15340;SDS011;7770;52.158;5.372;2023-11-22T15:43:26;38.87;;;28.23;;
15340;SDS011;7770;52.158;5.372;2023-11-22T15:46:13;35.90;;;28.77;;
15340;SDS011;7770;52.158;5.372;2023-11-22T15:49:00;37.60;;;28.37;;
15340;SDS011;7770;52.158;5.372;2023-11-22T15:51:45;39.63;;;29.47;;
15340;SDS011;7770;52.158;5.372;2023-11-22T15:54:31;40.83;;;30.47;;
15340;SDS011;7770;52.158;5.372;2023-11-22T15:57:17;41.80;;;30.50;;
15340;SDS011;7770;52.158;5.372;2023-11-22T16:00:03;48.40;;;33.07;;
15340;SDS011;7770;52.158;5.372;2023-11-22T16:02:55;42.27;;;30.47;;
15340;SDS011;7770;52.158;5.372;2023-11-22T16:05:41;49.23;;;34.63;;
15340;SDS011;7770;52.158;5.372;2023-11-22T16:08:27;45.67;;;31.47;;
15340;SDS011;7770;52.158;5.372;2023-11-22T16:11:13;44.83;;;31.57;;
15340;SDS011;7770;52.158;5.372;2023-11-22T16:13:59;41.93;;;30.73;;
15340;SDS011;7770;52.158;5.372;2023-11-22T16:16:45;44.13;;;33.07;;
15340;SDS011;7770;52.158;5.372;2023-11-22T16:19:30;44.47;;;30.27;;
15340;SDS011;7770;52.158;5.372;2023-11-22T16:22:16;45.47;;;31.77;;
15340;SDS011;7770;52.158;5.372;2023-11-22T16:25:02;48.87;;;33.07;;
15340;SDS011;7770;52.158;5.372;2023-11-22T16:27:49;51.97;;;33.93;;
15340;SDS011;7770;52.158;5.372;2023-11-22T16:30:36;49.50;;;33.17;;